Terminal Aerodrome Forecast
Issued by NWS Wilmington, OH

Home | Current Version | Previous Version | Text Only | Print | Product List | Glossary On
Versions: 1 2 3 4 5 6 7 8 9 10 11 12 13 14 15 16 17
000
FTUS41 KILN 081743
TAFDAY
TAF
KDAY 081743Z 0818/0918 29009KT P6SM -RASN SCT015 OVC025
      TEMPO 0818/0819 5SM -SN OVC015
     FM082000 29009KT P6SM VCSH SCT015 OVC025
     FM090000 27009KT P6SM -SN SCT015 OVC025
     FM090400 29012G22KT 2SM -SN OVC008
     FM091100 29013G23KT 3SM -SN OVC008=

USA.gov is the U.S. government's official web portal to all federal, state and local government web resources and services.